createdAt,value
2022-12-18T00:01:19.869Z,-1.12
2022-12-18T00:03:53.543Z,-1.06
2022-12-18T00:06:28.437Z,-1.09
2022-12-18T00:09:02.194Z,-1.09
2022-12-18T00:11:34.973Z,-1.09
2022-12-18T00:14:10.501Z,-1.12
2022-12-18T00:16:46.021Z,-1.13
2022-12-18T00:19:18.534Z,-1.14
2022-12-18T00:21:51.059Z,-1.14
2022-12-18T00:24:23.620Z,-1.15
2022-12-18T00:26:56.197Z,-1.16
2022-12-18T00:29:30.134Z,-1.14
2022-12-18T00:32:02.728Z,-1.14
2022-12-18T00:34:35.534Z,-1.17
2022-12-18T00:37:08.025Z,-1.17
2022-12-18T00:39:40.499Z,-1.17
2022-12-18T00:42:31.799Z,-1.17
2022-12-18T00:45:12.339Z,-1.19
2022-12-18T00:47:46.063Z,-1.24
2022-12-18T00:50:19.177Z,-1.24
2022-12-18T00:52:52.476Z,-1.26
2022-12-18T00:55:25.009Z,-1.24
2022-12-18T00:57:57.350Z,-1.26
2022-12-18T01:00:31.252Z,-1.30
2022-12-18T01:03:04.397Z,-1.35
2022-12-18T01:05:40.377Z,-1.37
2022-12-18T01:08:12.907Z,-1.45
2022-12-18T01:10:45.335Z,-1.40
2022-12-18T01:13:18.607Z,-1.43
2022-12-18T01:15:52.921Z,-1.45
2022-12-18T01:18:25.372Z,-1.45
2022-12-18T01:20:57.954Z,-1.46
2022-12-18T01:23:30.467Z,-1.49
2022-12-18T01:26:07.295Z,-1.52
2022-12-18T01:28:41.589Z,-1.54
2022-12-18T01:31:18.875Z,-1.55
2022-12-18T01:33:53.496Z,-1.58
2022-12-18T01:36:28.612Z,-1.62
2022-12-18T01:39:02.835Z,-1.61
2022-12-18T01:41:54.935Z,-1.61
2022-12-18T01:44:54.883Z,-1.63
2022-12-18T01:47:33.314Z,-1.64
2022-12-18T01:50:09.358Z,-1.66
2022-12-18T01:52:44.890Z,-1.68
2022-12-18T01:55:20.828Z,-1.70
2022-12-18T01:57:55.146Z,-1.72
2022-12-18T02:00:28.425Z,-1.73
2022-12-18T02:03:02.435Z,-1.74
2022-12-18T02:05:45.430Z,-1.74
2022-12-18T02:08:23.380Z,-1.75
2022-12-18T02:11:06.326Z,-1.77
2022-12-18T02:13:46.336Z,-1.78
2022-12-18T02:16:45.239Z,-1.83
2022-12-18T02:19:35.703Z,-1.79
2022-12-18T02:22:24.744Z,-1.78
2022-12-18T02:25:11.904Z,-1.79
2022-12-18T02:27:49.292Z,-1.81
2022-12-18T02:30:23.133Z,-1.83
2022-12-18T02:32:57.414Z,-1.82
2022-12-18T02:35:32.143Z,-1.84
2022-12-18T02:38:06.211Z,-1.85
2022-12-18T02:40:43.295Z,-1.87
2022-12-18T02:43:17.762Z,-1.89
2022-12-18T02:45:54.593Z,-1.87
2022-12-18T02:48:31.428Z,-1.88
2022-12-18T02:51:11.436Z,-1.91
2022-12-18T02:53:52.264Z,-1.93
2022-12-18T02:56:31.387Z,-1.93
2022-12-18T02:59:11.078Z,-1.97
2022-12-18T03:01:57.667Z,-1.99
2022-12-18T03:04:38.977Z,-2.08
2022-12-18T03:07:17.915Z,-2.10
2022-12-18T03:09:54.238Z,-2.12
2022-12-18T03:12:33.590Z,-2.14
2022-12-18T03:15:17.411Z,-2.16
2022-12-18T03:17:57.571Z,-2.16
2022-12-18T03:20:35.406Z,-2.15
2022-12-18T03:23:11.285Z,-2.16
2022-12-18T03:25:45.904Z,-2.16
2022-12-18T03:28:23.052Z,-2.17
2022-12-18T03:31:06.108Z,-2.17
2022-12-18T03:33:45.121Z,-2.20
2022-12-18T03:36:18.085Z,-2.25
2022-12-18T03:38:51.249Z,-2.25
2022-12-18T03:41:32.508Z,-2.27
2022-12-18T03:44:30.637Z,-2.38
2022-12-18T03:47:08.339Z,-2.29
2022-12-18T03:49:49.174Z,-2.37
2022-12-18T03:52:27.856Z,-2.35
2022-12-18T03:55:02.810Z,-2.35
2022-12-18T03:57:38.349Z,-2.39
2022-12-18T04:00:14.929Z,-2.40
2022-12-18T04:02:58.611Z,-2.38
2022-12-18T04:05:40.245Z,-2.47
2022-12-18T04:08:14.388Z,-2.38
2022-12-18T04:10:50.845Z,-2.38
2022-12-18T04:13:24.655Z,-2.38
2022-12-18T04:15:57.780Z,-2.40
2022-12-18T04:18:32.390Z,-2.40
2022-12-18T04:21:06.745Z,-2.41
2022-12-18T04:23:39.777Z,-2.40
2022-12-18T04:26:13.379Z,-2.39
2022-12-18T04:29:09.186Z,-2.38
2022-12-18T04:31:42.047Z,-2.39
2022-12-18T04:34:17.013Z,-2.39
2022-12-18T04:36:55.541Z,-2.41
2022-12-18T04:39:29.425Z,-2.42
2022-12-18T04:42:06.662Z,-2.46
2022-12-18T04:44:40.147Z,-2.44
2022-12-18T04:47:12.752Z,-2.54
2022-12-18T04:49:46.617Z,-2.45
2022-12-18T04:52:19.098Z,-2.47
2022-12-18T04:54:51.641Z,-2.47
2022-12-18T04:57:24.260Z,-2.47
2022-12-18T04:59:56.742Z,-2.47
2022-12-18T05:02:29.238Z,-2.49
2022-12-18T05:05:03.692Z,-2.50
2022-12-18T05:07:36.478Z,-2.52
2022-12-18T05:10:09.573Z,-2.51
2022-12-18T05:13:01.159Z,-2.54
2022-12-18T05:15:34.341Z,-2.52
2022-12-18T05:18:06.937Z,-2.55
2022-12-18T05:20:40.693Z,-2.52
2022-12-18T05:23:13.247Z,-2.51
2022-12-18T05:25:49.099Z,-2.52
2022-12-18T05:28:22.819Z,-2.54
2022-12-18T05:30:57.292Z,-2.57
2022-12-18T05:33:31.993Z,-2.59
2022-12-18T05:36:08.101Z,-2.58
2022-12-18T05:38:40.802Z,-2.59
2022-12-18T05:41:13.482Z,-2.63
2022-12-18T05:43:45.940Z,-2.63
2022-12-18T05:46:19.318Z,-2.65
2022-12-18T05:48:52.071Z,-2.65
2022-12-18T05:51:25.934Z,-2.71
2022-12-18T05:53:58.341Z,-2.67
2022-12-18T05:56:30.967Z,-2.67
2022-12-18T05:59:03.597Z,-2.65
2022-12-18T06:01:36.214Z,-2.65
2022-12-18T06:04:08.933Z,-2.64
2022-12-18T06:06:43.004Z,-2.67
2022-12-18T06:09:15.681Z,-2.65
2022-12-18T06:11:49.412Z,-2.62
2022-12-18T06:14:22.532Z,-2.64
2022-12-18T06:16:55.166Z,-2.62
2022-12-18T06:19:27.767Z,-2.57
2022-12-18T06:22:01.566Z,-2.55
2022-12-18T06:24:34.363Z,-2.56
2022-12-18T06:27:06.899Z,-2.55
2022-12-18T06:29:39.570Z,-2.58
2022-12-18T06:32:11.992Z,-2.62
2022-12-18T06:34:44.502Z,-2.58
2022-12-18T06:37:18.419Z,-2.61
2022-12-18T06:39:51.030Z,-2.64
2022-12-18T06:42:23.905Z,-2.61
2022-12-18T06:44:56.381Z,-2.60
2022-12-18T06:47:29.344Z,-2.65
2022-12-18T06:50:01.841Z,-2.63
2022-12-18T06:52:37.852Z,-2.62
2022-12-18T06:55:11.036Z,-2.64
2022-12-18T06:57:43.748Z,-2.65
2022-12-18T07:00:16.537Z,-2.63
2022-12-18T07:02:49.149Z,-2.65
2022-12-18T07:05:21.712Z,-2.61
2022-12-18T07:07:55.619Z,-2.61
2022-12-18T07:10:28.211Z,-2.59
2022-12-18T07:13:00.664Z,-2.55
2022-12-18T07:15:33.253Z,-2.55
2022-12-18T07:18:05.925Z,-2.71
2022-12-18T07:20:38.453Z,-2.58
2022-12-18T07:23:12.293Z,-2.70
2022-12-18T07:25:44.884Z,-2.61
2022-12-18T07:28:18.069Z,-2.62
2022-12-18T07:30:50.667Z,-2.66
2022-12-18T07:33:23.045Z,-2.68
2022-12-18T07:35:55.486Z,-2.70
2022-12-18T07:38:29.365Z,-2.70
2022-12-18T07:41:02.984Z,-2.70
2022-12-18T07:43:36.100Z,-2.70
2022-12-18T07:46:10.101Z,-2.70
2022-12-18T07:48:44.654Z,-2.73
2022-12-18T07:51:22.239Z,-2.77
2022-12-18T07:53:58.205Z,-2.80
2022-12-18T07:56:31.550Z,-2.76
2022-12-18T07:59:04.417Z,-2.75
2022-12-18T08:01:37.143Z,-2.72
2022-12-18T08:04:09.755Z,-2.72
2022-12-18T08:06:47.425Z,-2.72
2022-12-18T08:09:21.870Z,-2.73
2022-12-18T08:11:54.726Z,-2.72
2022-12-18T08:14:27.232Z,-2.76
2022-12-18T08:16:59.739Z,-2.77
2022-12-18T08:19:32.342Z,-2.72
2022-12-18T08:22:04.934Z,-2.71
2022-12-18T08:24:38.735Z,-2.70
2022-12-18T08:27:29.019Z,-2.72
2022-12-18T08:30:02.603Z,-2.78
2022-12-18T08:32:35.690Z,-2.71
2022-12-18T08:35:09.555Z,-2.68
2022-12-18T08:37:42.349Z,-2.68
2022-12-18T08:40:16.703Z,-2.67
2022-12-18T08:43:07.960Z,-2.70
2022-12-18T08:45:40.478Z,-2.72
2022-12-18T08:48:16.599Z,-2.74
2022-12-18T08:50:56.488Z,-2.70
2022-12-18T08:53:36.739Z,-2.64
2022-12-18T08:56:10.936Z,-2.64
2022-12-18T08:58:43.782Z,-2.59
2022-12-18T09:01:16.439Z,-2.56
2022-12-18T09:03:49.493Z,-2.53
2022-12-18T09:06:23.667Z,-2.55
2022-12-18T09:08:56.218Z,-2.47
2022-12-18T09:11:31.549Z,-2.50
2022-12-18T09:14:04.121Z,-2.45
2022-12-18T09:16:37.868Z,-2.48
2022-12-18T09:19:11.375Z,-2.48
2022-12-18T09:21:48.026Z,-2.48
2022-12-18T09:24:23.882Z,-2.47
2022-12-18T09:26:58.207Z,-2.46
2022-12-18T09:29:30.792Z,-2.48
2022-12-18T09:32:03.342Z,-2.47
2022-12-18T09:34:35.965Z,-2.49
2022-12-18T09:37:08.493Z,-2.51
2022-12-18T09:39:40.985Z,-2.50
2022-12-18T09:42:22.146Z,-2.50
2022-12-18T09:44:55.548Z,-2.54
2022-12-18T09:47:32.364Z,-2.58
2022-12-18T09:50:18.095Z,-2.69
2022-12-18T09:52:54.686Z,-2.61
2022-12-18T09:55:36.836Z,-2.77
2022-12-18T09:58:18.564Z,-2.64
2022-12-18T10:00:53.007Z,-2.77
2022-12-18T10:03:25.745Z,-2.77
2022-12-18T10:06:07.285Z,-2.73
2022-12-18T10:08:47.319Z,-2.74
2022-12-18T10:11:33.417Z,-2.74
2022-12-18T10:14:16.121Z,-2.76
2022-12-18T10:17:00.980Z,-2.73
2022-12-18T10:19:42.523Z,-2.74
2022-12-18T10:22:27.240Z,-2.73
2022-12-18T10:25:06.733Z,-2.75
2022-12-18T10:27:39.364Z,-2.73
2022-12-18T10:30:19.379Z,-2.77
2022-12-18T10:32:52.492Z,-2.71
2022-12-18T10:35:26.911Z,-2.66
2022-12-18T10:38:05.592Z,-2.66
2022-12-18T10:40:50.771Z,-2.65
2022-12-18T10:43:28.293Z,-2.63
2022-12-18T10:46:15.642Z,-2.63
2022-12-18T10:48:56.612Z,-2.65
2022-12-18T10:51:31.999Z,-2.65
2022-12-18T10:54:07.008Z,-2.70
2022-12-18T10:56:39.675Z,-2.69
2022-12-18T10:59:15.719Z,-2.65
2022-12-18T11:01:52.723Z,-2.71
2022-12-18T11:04:27.368Z,-2.65
2022-12-18T11:07:01.517Z,-2.63
2022-12-18T11:09:35.824Z,-2.63
2022-12-18T11:12:23.763Z,-2.64
2022-12-18T11:14:58.782Z,-2.70
2022-12-18T11:17:35.946Z,-2.62
2022-12-18T11:20:23.031Z,-2.71
2022-12-18T11:22:58.399Z,-2.61
2022-12-18T11:25:33.094Z,-2.61
2022-12-18T11:28:26.280Z,-2.55
2022-12-18T11:31:29.871Z,-2.58
2022-12-18T11:37:10.531Z,-2.50
2022-12-18T11:39:47.507Z,-2.48
2022-12-18T11:42:24.311Z,-2.53
2022-12-18T11:45:00.722Z,-2.52
2022-12-18T11:47:41.881Z,-2.55
2022-12-18T11:50:23.222Z,-2.51
2022-12-18T11:52:59.217Z,-2.51
2022-12-18T11:55:45.795Z,-2.53
2022-12-18T11:58:33.694Z,-2.59
2022-12-18T12:01:16.156Z,-2.61
2022-12-18T12:04:13.544Z,-2.63
2022-12-18T12:07:02.765Z,-2.63
2022-12-18T12:09:42.961Z,-2.63
2022-12-18T12:12:48.613Z,-2.64
2022-12-18T12:15:39.037Z,-2.65
2022-12-18T12:18:24.539Z,-2.66
2022-12-18T12:21:10.459Z,-2.65
2022-12-18T12:23:53.620Z,-2.73
2022-12-18T12:26:34.197Z,-2.64
2022-12-18T12:29:29.138Z,-2.63
2022-12-18T12:32:13.776Z,-2.64
2022-12-18T12:35:00.998Z,-2.67
2022-12-18T12:37:45.480Z,-2.69
2022-12-18T12:40:50.112Z,-2.70
2022-12-18T12:43:26.318Z,-2.70
2022-12-18T12:46:03.728Z,-2.70
2022-12-18T12:48:43.357Z,-2.70
2022-12-18T12:51:21.161Z,-2.68
2022-12-18T12:53:56.152Z,-2.74
2022-12-18T12:56:41.132Z,-2.73
2022-12-18T12:59:20.538Z,-2.65
2022-12-18T13:02:00.804Z,-2.68
2022-12-18T13:04:42.283Z,-2.73
2022-12-18T13:07:20.110Z,-2.66
2022-12-18T13:10:17.209Z,-2.66
2022-12-18T13:12:58.797Z,-2.67
2022-12-18T13:15:38.604Z,-2.67
2022-12-18T13:18:16.665Z,-2.73
2022-12-18T13:20:55.391Z,-2.66
2022-12-18T13:23:37.569Z,-2.64
2022-12-18T13:26:33.326Z,-2.62
2022-12-18T13:29:10.346Z,-2.62
2022-12-18T13:32:22.961Z,-2.58
2022-12-18T13:35:34.042Z,-2.61
2022-12-18T13:38:23.429Z,-2.66
2022-12-18T13:40:58.296Z,-2.59
2022-12-18T13:43:44.600Z,-2.59
2022-12-18T13:46:29.277Z,-2.58
2022-12-18T13:49:06.458Z,-2.62
2022-12-18T13:51:42.663Z,-2.57
2022-12-18T13:54:23.445Z,-2.57
2022-12-18T13:56:56.070Z,-2.56
2022-12-18T13:59:35.039Z,-2.56
2022-12-18T14:02:15.937Z,-2.56
2022-12-18T14:04:50.026Z,-2.56
2022-12-18T14:07:24.413Z,-2.55
2022-12-18T14:10:18.881Z,-2.58
2022-12-18T14:13:00.868Z,-2.54
2022-12-18T14:15:37.021Z,-2.55
2022-12-18T14:18:21.905Z,-2.59
2022-12-18T14:20:58.087Z,-2.58
2022-12-18T14:23:34.088Z,-2.58
2022-12-18T14:26:22.901Z,-2.59
2022-12-18T14:28:56.619Z,-2.57
2022-12-18T14:31:31.196Z,-2.57
2022-12-18T14:34:05.060Z,-2.67
2022-12-18T14:36:37.624Z,-2.58
2022-12-18T14:39:18.497Z,-2.58
2022-12-18T14:41:51.333Z,-2.59
2022-12-18T14:44:23.901Z,-2.60
2022-12-18T14:46:56.870Z,-2.59
2022-12-18T14:49:32.885Z,-2.63
2022-12-18T14:52:07.451Z,-2.59
2022-12-18T14:54:40.991Z,-2.57
2022-12-18T14:57:22.759Z,-2.62
2022-12-18T15:00:05.605Z,-2.60
2022-12-18T15:02:39.024Z,-2.55
2022-12-18T15:05:20.808Z,-2.63
2022-12-18T15:07:55.188Z,-2.53
2022-12-18T15:10:29.326Z,-2.53
2022-12-18T15:13:10.211Z,-2.53
2022-12-18T15:15:47.945Z,-2.52
2022-12-18T15:18:22.821Z,-2.52
2022-12-18T15:21:00.159Z,-2.50
2022-12-18T15:23:37.648Z,-2.54
2022-12-18T15:26:12.938Z,-2.52
2022-12-18T15:28:47.694Z,-2.53
2022-12-18T15:31:29.913Z,-2.55
2022-12-18T15:34:11.921Z,-2.52
2022-12-18T15:36:45.859Z,-2.53
2022-12-18T15:39:18.535Z,-2.53
2022-12-18T15:42:09.595Z,-2.58
2022-12-18T15:44:42.161Z,-2.59
2022-12-18T15:47:14.698Z,-2.56
2022-12-18T15:49:47.470Z,-2.61
2022-12-18T15:52:27.221Z,-2.61
2022-12-18T15:55:18.460Z,-2.62
2022-12-18T15:57:51.212Z,-2.64
2022-12-18T16:00:24.062Z,-2.63
2022-12-18T16:02:56.789Z,-2.66
2022-12-18T16:05:30.321Z,-2.73
2022-12-18T16:08:04.485Z,-2.68
2022-12-18T16:10:37.103Z,-2.70
2022-12-18T16:13:11.863Z,-2.76
2022-12-18T16:15:44.508Z,-2.72
2022-12-18T16:18:17.000Z,-2.75
2022-12-18T16:20:49.584Z,-2.76
2022-12-18T16:23:23.435Z,-2.79
2022-12-18T16:25:56.064Z,-2.84
2022-12-18T16:28:28.567Z,-2.80
2022-12-18T16:31:01.381Z,-2.82
2022-12-18T16:33:33.889Z,-2.85
2022-12-18T16:36:06.977Z,-2.86
2022-12-18T16:38:40.908Z,-2.89
2022-12-18T16:41:32.436Z,-2.90
2022-12-18T16:44:05.122Z,-2.96
2022-12-18T16:46:37.967Z,-2.95
2022-12-18T16:49:11.407Z,-3.00
2022-12-18T16:51:44.214Z,-2.97
2022-12-18T16:54:19.706Z,-3.00
2022-12-18T16:56:52.873Z,-3.06
2022-12-18T16:59:26.893Z,-3.04
2022-12-18T17:02:03.859Z,-3.06
2022-12-18T17:04:36.703Z,-3.07
2022-12-18T17:07:09.632Z,-3.10
2022-12-18T17:09:45.348Z,-3.11
2022-12-18T17:12:18.511Z,-3.16
2022-12-18T17:14:52.679Z,-3.15
2022-12-18T17:17:25.275Z,-3.14
2022-12-18T17:19:57.690Z,-3.24
2022-12-18T17:22:30.215Z,-3.18
2022-12-18T17:25:04.537Z,-3.19
2022-12-18T17:27:44.828Z,-3.20
2022-12-18T17:30:17.443Z,-3.23
2022-12-18T17:32:49.975Z,-3.28
2022-12-18T17:35:22.415Z,-3.29
2022-12-18T17:37:55.006Z,-3.31
2022-12-18T17:40:29.672Z,-3.33
2022-12-18T17:43:02.418Z,-3.37
2022-12-18T17:45:36.066Z,-3.39
2022-12-18T17:48:09.800Z,-3.41
2022-12-18T17:50:42.308Z,-3.44
2022-12-18T17:53:14.873Z,-3.47
2022-12-18T17:55:55.741Z,-3.50
2022-12-18T17:58:28.784Z,-3.53
2022-12-18T18:01:01.396Z,-3.56
2022-12-18T18:03:37.864Z,-3.59
2022-12-18T18:06:10.907Z,-3.62
2022-12-18T18:08:43.628Z,-3.66
2022-12-18T18:11:37.377Z,-3.70
2022-12-18T18:14:14.802Z,-3.77
2022-12-18T18:16:49.370Z,-3.78
2022-12-18T18:19:24.062Z,-3.82
2022-12-18T18:21:56.623Z,-3.86
2022-12-18T18:24:29.693Z,-3.90
2022-12-18T18:27:03.715Z,-3.94
2022-12-18T18:29:36.705Z,-4.05
2022-12-18T18:32:09.226Z,-4.04
2022-12-18T18:34:42.140Z,-4.04
2022-12-18T18:37:14.691Z,-4.10
2022-12-18T18:39:47.244Z,-4.13
2022-12-18T18:42:21.029Z,-4.15
2022-12-18T18:44:53.559Z,-4.20
2022-12-18T18:47:26.299Z,-4.26
2022-12-18T18:49:59.488Z,-4.27
2022-12-18T18:52:32.101Z,-4.35
2022-12-18T18:55:17.776Z,-4.38
2022-12-18T18:57:59.536Z,-4.41
2022-12-18T19:00:33.898Z,-4.45
2022-12-18T19:03:07.171Z,-4.48
2022-12-18T19:05:43.073Z,-4.51
2022-12-18T19:08:19.865Z,-4.56
2022-12-18T19:10:57.629Z,-4.60
2022-12-18T19:13:34.209Z,-4.70
2022-12-18T19:16:08.986Z,-4.68
2022-12-18T19:18:43.242Z,-4.74
2022-12-18T19:21:16.496Z,-4.74
2022-12-18T19:23:49.152Z,-4.75
2022-12-18T19:26:27.864Z,-4.89
2022-12-18T19:29:03.347Z,-4.85
2022-12-18T19:31:37.490Z,-4.90
2022-12-18T19:34:10.097Z,-4.95
2022-12-18T19:36:42.950Z,-4.97
2022-12-18T19:39:18.084Z,-5.02
2022-12-18T19:41:52.799Z,-5.04
2022-12-18T19:44:26.977Z,-5.09
2022-12-18T19:46:59.520Z,-5.09
2022-12-18T19:49:32.803Z,-5.16
2022-12-18T19:52:05.650Z,-5.23
2022-12-18T19:54:38.179Z,-5.23
2022-12-18T19:57:11.828Z,-5.26
2022-12-18T19:59:45.737Z,-5.31
2022-12-18T20:02:21.477Z,-5.36
2022-12-18T20:04:54.815Z,-5.39
2022-12-18T20:07:27.312Z,-5.41
2022-12-18T20:10:05.453Z,-5.41
2022-12-18T20:12:41.460Z,-5.49
2022-12-18T20:15:15.404Z,-5.47
2022-12-18T20:17:47.995Z,-5.50
2022-12-18T20:20:20.472Z,-5.53
2022-12-18T20:22:53.594Z,-5.55
2022-12-18T20:25:26.106Z,-5.58
2022-12-18T20:27:58.605Z,-5.60
2022-12-18T20:30:32.482Z,-5.66
2022-12-18T20:33:05.314Z,-5.70
2022-12-18T20:35:37.873Z,-5.64
2022-12-18T20:38:10.833Z,-5.68
2022-12-18T20:40:44.829Z,-5.72
2022-12-18T20:43:17.649Z,-5.76
2022-12-18T20:45:51.674Z,-5.88
2022-12-18T20:48:26.761Z,-5.81
2022-12-18T20:51:00.241Z,-5.84
2022-12-18T20:53:37.334Z,-5.91
2022-12-18T20:56:20.161Z,-5.94
2022-12-18T20:58:56.888Z,-5.94
2022-12-18T21:01:31.080Z,-5.96
2022-12-18T21:04:03.721Z,-5.99
2022-12-18T21:06:37.113Z,-6.13
2022-12-18T21:09:09.889Z,-6.05
2022-12-18T21:12:01.115Z,-6.13
2022-12-18T21:14:34.140Z,-6.10
2022-12-18T21:17:08.018Z,-6.14
2022-12-18T21:19:40.785Z,-6.17
2022-12-18T21:22:13.930Z,-6.24
2022-12-18T21:24:46.824Z,-6.24
2022-12-18T21:27:19.376Z,-6.33
2022-12-18T21:29:52.649Z,-6.30
2022-12-18T21:32:26.613Z,-6.35
2022-12-18T21:35:02.456Z,-6.41
2022-12-18T21:37:35.769Z,-6.44
2022-12-18T21:40:09.819Z,-6.40
2022-12-18T21:43:00.974Z,-6.42
2022-12-18T21:45:33.546Z,-6.44
2022-12-18T21:48:07.472Z,-6.49
2022-12-18T21:50:40.085Z,-6.48
2022-12-18T21:53:12.589Z,-6.50
2022-12-18T21:55:45.171Z,-6.53
2022-12-18T21:58:17.643Z,-6.60
2022-12-18T22:00:50.722Z,-6.61
2022-12-18T22:03:25.298Z,-6.63
2022-12-18T22:06:09.017Z,-6.70
2022-12-18T22:08:43.774Z,-6.71
2022-12-18T22:11:16.684Z,-6.72
2022-12-18T22:13:50.643Z,-6.73
2022-12-18T22:16:23.292Z,-6.76
2022-12-18T22:18:57.437Z,-6.78
2022-12-18T22:21:31.296Z,-6.78
2022-12-18T22:24:06.014Z,-6.82
2022-12-18T22:26:40.331Z,-6.90
2022-12-18T22:29:33.742Z,-6.89
2022-12-18T22:32:09.060Z,-6.96
2022-12-18T22:34:45.136Z,-6.97
2022-12-18T22:37:17.874Z,-7.00
2022-12-18T22:39:50.326Z,-7.06
2022-12-18T22:42:23.106Z,-7.02
2022-12-18T22:44:55.638Z,-7.04
2022-12-18T22:47:30.479Z,-7.07
2022-12-18T22:50:05.870Z,-7.08
2022-12-18T22:52:38.731Z,-7.13
2022-12-18T22:55:11.173Z,-7.14
2022-12-18T22:57:47.949Z,-7.17
2022-12-18T23:00:24.067Z,-7.20
2022-12-18T23:03:00.591Z,-7.25
2022-12-18T23:05:34.583Z,-7.23
2022-12-18T23:08:07.094Z,-7.26
2022-12-18T23:10:40.142Z,-7.28
2022-12-18T23:13:12.657Z,-7.31
2022-12-18T23:15:49.325Z,-7.33
2022-12-18T23:18:22.136Z,-7.43
2022-12-18T23:20:55.988Z,-7.38
2022-12-18T23:23:29.205Z,-7.47
2022-12-18T23:26:03.051Z,-7.46
2022-12-18T23:28:37.266Z,-7.43
2022-12-18T23:31:14.665Z,-7.46
2022-12-18T23:33:49.278Z,-7.47
2022-12-18T23:36:24.449Z,-7.48
2022-12-18T23:38:58.480Z,-7.52
2022-12-18T23:41:32.426Z,-7.60
2022-12-18T23:44:05.309Z,-7.59
2022-12-18T23:46:37.847Z,-7.62
2022-12-18T23:49:10.615Z,-7.64
2022-12-18T23:51:44.368Z,-7.65
2022-12-18T23:54:17.097Z,-7.70
2022-12-18T23:56:55.284Z,-7.74
2022-12-18T23:59:27.876Z,-7.75
